createdAt,value
2023-04-01T00:01:15.096Z,10.14
2023-04-01T00:03:42.103Z,10.09
2023-04-01T00:06:08.682Z,10.09
2023-04-01T00:08:35.057Z,10.12
2023-04-01T00:11:01.640Z,10.09
2023-04-01T00:13:28.060Z,10.12
2023-04-01T00:15:56.051Z,10.09
2023-04-01T00:18:23.078Z,10.13
2023-04-01T00:20:50.460Z,10.04
2023-04-01T00:23:16.969Z,10.09
2023-04-01T00:25:43.451Z,10.08
2023-04-01T00:28:09.798Z,10.03
2023-04-01T00:30:36.779Z,9.99
2023-04-01T00:33:03.217Z,10.00
2023-04-01T00:35:29.744Z,9.99
2023-04-01T00:37:56.233Z,10.10
2023-04-01T00:40:30.529Z,9.96
2023-04-01T00:42:57.207Z,9.94
2023-04-01T00:45:32.031Z,9.94
2023-04-01T00:48:00.309Z,9.86
2023-04-01T00:50:27.547Z,9.88
2023-04-01T00:52:54.219Z,9.89
2023-04-01T00:55:22.267Z,9.95
2023-04-01T00:57:50.453Z,10.02
2023-04-01T01:00:16.900Z,10.07
2023-04-01T01:02:45.329Z,10.06
2023-04-01T01:05:16.734Z,10.03
2023-04-01T01:08:02.627Z,9.92
2023-04-01T01:10:34.175Z,9.97
2023-04-01T01:13:03.626Z,9.96
2023-04-01T01:15:30.163Z,9.87
2023-04-01T01:18:16.925Z,9.91
2023-04-01T01:20:57.591Z,9.80
2023-04-01T01:23:33.463Z,9.87
2023-04-01T01:26:18.644Z,9.86
2023-04-01T01:28:56.840Z,9.91
2023-04-01T01:31:30.986Z,9.77
2023-04-01T01:34:03.312Z,9.88
2023-04-01T01:36:32.059Z,9.85
2023-04-01T01:38:58.963Z,9.91
2023-04-01T01:41:27.536Z,9.90
2023-04-01T01:43:54.607Z,9.92
2023-04-01T01:46:23.416Z,9.95
2023-04-01T01:48:53.763Z,9.93
2023-04-01T01:51:21.580Z,9.87
2023-04-01T01:53:48.192Z,9.92
2023-04-01T01:56:15.034Z,9.96
2023-04-01T01:58:44.628Z,9.97
2023-04-01T02:01:31.449Z,9.93
2023-04-01T02:03:58.848Z,9.95
2023-04-01T02:06:27.102Z,9.95
2023-04-01T02:08:58.169Z,9.97
2023-04-01T02:11:28.177Z,10.03
2023-04-01T02:14:02.723Z,9.95
2023-04-01T02:16:33.124Z,9.97
2023-04-01T02:19:01.168Z,9.90
2023-04-01T02:21:30.624Z,9.92
2023-04-01T02:23:58.176Z,9.92
2023-04-01T02:26:26.640Z,9.93
2023-04-01T02:28:55.501Z,9.80
2023-04-01T02:31:22.771Z,9.88
2023-04-01T02:33:49.346Z,9.87
2023-04-01T02:36:16.790Z,9.83
2023-04-01T02:38:43.770Z,9.88
2023-04-01T02:41:10.094Z,9.88
2023-04-01T02:43:36.523Z,9.92
2023-04-01T02:46:02.895Z,9.86
2023-04-01T02:48:29.646Z,9.83
2023-04-01T02:50:56.120Z,9.86
2023-04-01T02:53:22.446Z,9.82
2023-04-01T02:55:51.394Z,9.80
2023-04-01T02:58:18.161Z,9.77
2023-04-01T03:00:44.633Z,9.75
2023-04-01T03:03:11.352Z,9.76
2023-04-01T03:05:37.839Z,9.76
2023-04-01T03:08:04.234Z,9.76
2023-04-01T03:10:30.905Z,9.64
2023-04-01T03:12:57.225Z,9.57
2023-04-01T03:15:23.594Z,9.66
2023-04-01T03:17:50.121Z,9.71
2023-04-01T03:20:16.572Z,9.78
2023-04-01T03:22:43.218Z,9.77
2023-04-01T03:25:10.943Z,9.79
2023-04-01T03:27:37.504Z,9.75
2023-04-01T03:30:04.589Z,9.80
2023-04-01T03:32:31.432Z,9.84
2023-04-01T03:34:57.872Z,9.85
2023-04-01T03:37:24.414Z,9.84
2023-04-01T03:39:50.779Z,9.82
2023-04-01T03:42:17.194Z,9.82
2023-04-01T03:44:43.630Z,9.76
2023-04-01T03:47:10.720Z,9.84
2023-04-01T03:49:37.049Z,9.82
2023-04-01T03:52:03.460Z,9.87
2023-04-01T03:54:29.802Z,9.89
2023-04-01T03:56:58.598Z,9.87
2023-04-01T03:59:25.313Z,9.77
2023-04-01T04:01:51.645Z,9.83
2023-04-01T04:04:18.746Z,9.86
2023-04-01T04:06:45.229Z,9.86
2023-04-01T04:09:11.623Z,9.88
2023-04-01T04:11:38.121Z,9.81
2023-04-01T04:14:04.492Z,9.79
2023-04-01T04:16:31.004Z,9.88
2023-04-01T04:18:57.461Z,9.85
2023-04-01T04:21:23.849Z,9.85
2023-04-01T04:23:50.363Z,9.86
2023-04-01T04:26:16.802Z,9.88
2023-04-01T04:28:43.375Z,9.85
2023-04-01T04:31:09.865Z,9.83
2023-04-01T04:33:36.763Z,9.85
2023-04-01T04:36:04.029Z,9.81
2023-04-01T04:38:30.481Z,9.81
2023-04-01T04:40:56.821Z,9.82
2023-04-01T04:43:23.208Z,9.79
2023-04-01T04:45:49.710Z,9.67
2023-04-01T04:48:29.874Z,9.72
2023-04-01T04:50:56.303Z,9.79
2023-04-01T04:53:22.685Z,9.77
2023-04-01T04:55:50.421Z,9.73
2023-04-01T04:58:16.927Z,9.78
2023-04-01T05:00:43.660Z,9.82
2023-04-01T05:03:10.356Z,9.74
2023-04-01T05:05:45.725Z,9.76
2023-04-01T05:08:12.069Z,9.81
2023-04-01T05:10:38.506Z,9.85
2023-04-01T05:13:04.823Z,9.78
2023-04-01T05:15:31.483Z,9.81
2023-04-01T05:17:58.106Z,9.87
2023-04-01T05:20:24.515Z,9.88
2023-04-01T05:22:51.195Z,9.92
2023-04-01T05:25:17.706Z,9.92
2023-04-01T05:27:44.074Z,9.95
2023-04-01T05:30:10.781Z,9.95
2023-04-01T05:32:37.160Z,9.97
2023-04-01T05:35:03.867Z,9.90
2023-04-01T05:37:30.291Z,9.80
2023-04-01T05:39:56.729Z,9.74
2023-04-01T05:42:23.048Z,9.81
2023-04-01T05:44:49.375Z,9.90
2023-04-01T05:47:15.795Z,9.89
2023-04-01T05:49:42.155Z,9.82
2023-04-01T05:52:08.669Z,9.87
2023-04-01T05:54:35.082Z,9.93
2023-04-01T05:57:01.478Z,9.97
2023-04-01T05:59:27.821Z,9.99
2023-04-01T06:01:54.278Z,10.04
2023-04-01T06:04:20.916Z,10.02
2023-04-01T06:06:47.493Z,10.06
2023-04-01T06:09:19.181Z,10.07
2023-04-01T06:12:04.526Z,10.06
2023-04-01T06:14:39.765Z,10.09
2023-04-01T06:17:18.455Z,10.06
2023-04-01T06:20:03.804Z,10.09
2023-04-01T06:22:39.170Z,10.18
2023-04-01T06:25:11.546Z,10.15
2023-04-01T06:27:53.082Z,10.16
2023-04-01T06:30:38.571Z,10.19
2023-04-01T06:33:23.771Z,10.19
2023-04-01T06:36:01.718Z,10.24
2023-04-01T06:38:38.527Z,10.26
2023-04-01T06:41:20.937Z,10.25
2023-04-01T06:44:09.187Z,10.26
2023-04-01T06:46:45.307Z,10.24
2023-04-01T06:49:30.102Z,10.28
2023-04-01T06:52:04.515Z,10.31
2023-04-01T06:54:30.898Z,10.37
2023-04-01T06:57:17.222Z,10.40
2023-04-01T06:59:43.787Z,10.41
2023-04-01T07:02:13.137Z,10.46
2023-04-01T07:04:46.086Z,10.47
2023-04-01T07:07:31.397Z,10.45
2023-04-01T07:10:00.849Z,10.45
2023-04-01T07:12:38.815Z,10.48
2023-04-01T07:15:13.940Z,10.50
2023-04-01T07:17:42.663Z,10.51
2023-04-01T07:20:26.775Z,10.48
2023-04-01T07:22:55.936Z,10.44
2023-04-01T07:25:26.253Z,10.35
2023-04-01T07:27:54.256Z,10.46
2023-04-01T07:30:22.783Z,10.46
2023-04-01T07:32:57.328Z,10.45
2023-04-01T07:35:31.788Z,10.47
2023-04-01T07:37:58.422Z,10.49
2023-04-01T07:40:36.524Z,10.46
2023-04-01T07:43:26.996Z,10.13
2023-04-01T07:46:01.020Z,10.01
2023-04-01T07:48:34.053Z,10.24
2023-04-01T07:51:14.714Z,10.00
2023-04-01T07:53:47.074Z,9.75
2023-04-01T07:56:18.241Z,9.32
2023-04-01T07:58:56.398Z,8.96
2023-04-01T08:01:22.720Z,9.24
2023-04-01T08:03:49.160Z,9.22
2023-04-01T08:06:26.705Z,9.18
2023-04-01T08:09:11.991Z,9.11
2023-04-01T08:12:07.790Z,9.00
2023-04-01T08:14:43.988Z,8.93
2023-04-01T08:17:15.477Z,8.86
2023-04-01T08:19:53.184Z,8.63
2023-04-01T08:22:39.861Z,8.49
2023-04-01T08:25:08.759Z,8.49
2023-04-01T08:27:38.148Z,8.29
2023-04-01T08:30:17.958Z,8.37
2023-04-01T08:32:48.805Z,8.36
2023-04-01T08:35:32.110Z,8.56
2023-04-01T08:38:02.291Z,8.40
2023-04-01T08:40:36.717Z,8.42
2023-04-01T08:43:32.507Z,8.47
2023-04-01T08:46:17.439Z,8.73
2023-04-01T08:48:49.622Z,8.17
2023-04-01T08:51:22.047Z,8.48
2023-04-01T08:54:07.206Z,8.64
2023-04-01T08:56:49.007Z,8.55
2023-04-01T08:59:26.191Z,8.30
2023-04-01T09:01:59.930Z,8.28
2023-04-01T09:04:39.997Z,8.22
2023-04-01T09:07:21.627Z,8.42
2023-04-01T09:10:07.525Z,8.32
2023-04-01T09:12:52.684Z,8.31
2023-04-01T09:15:19.045Z,8.19
2023-04-01T09:17:58.844Z,8.48
2023-04-01T09:20:32.289Z,8.10
2023-04-01T09:23:17.401Z,8.31
2023-04-01T09:25:47.357Z,8.34
2023-04-01T09:28:21.012Z,8.48
2023-04-01T09:31:12.261Z,8.21
2023-04-01T09:33:41.600Z,8.36
2023-04-01T09:36:17.163Z,8.61
2023-04-01T09:38:56.909Z,8.47
2023-04-01T09:41:23.291Z,8.40
2023-04-01T09:44:00.990Z,8.69
2023-04-01T09:46:36.692Z,8.56
2023-04-01T09:49:21.847Z,8.78
2023-04-01T09:52:06.988Z,8.38
2023-04-01T09:55:11.785Z,8.60
2023-04-01T09:57:43.789Z,8.70
2023-04-01T10:00:25.575Z,8.72
2023-04-01T10:03:17.187Z,8.68
2023-04-01T10:06:14.496Z,9.05
2023-04-01T10:08:53.309Z,8.50
2023-04-01T10:11:38.645Z,8.54
2023-04-01T10:14:25.804Z,8.64
2023-04-01T10:17:11.092Z,8.30
2023-04-01T10:20:03.451Z,8.28
2023-04-01T10:22:32.789Z,8.39
2023-04-01T10:25:11.471Z,8.27
2023-04-01T10:27:56.613Z,8.33
2023-04-01T10:30:41.869Z,8.34
2023-04-01T10:33:27.076Z,8.09
2023-04-01T10:36:02.694Z,7.96
2023-04-01T10:38:31.973Z,8.00
2023-04-01T10:41:16.432Z,7.93
2023-04-01T10:43:42.733Z,8.08
2023-04-01T10:46:28.024Z,8.13
2023-04-01T10:49:13.221Z,8.36
2023-04-01T10:52:04.654Z,7.98
2023-04-01T11:01:28.826Z,7.76
2023-04-01T11:04:15.376Z,7.77
2023-04-01T11:06:54.504Z,7.98
2023-04-01T11:09:26.997Z,7.67
2023-04-01T11:11:56.394Z,7.93
2023-04-01T11:14:55.777Z,8.10
2023-04-01T11:17:41.159Z,8.25
2023-04-01T11:20:26.287Z,7.88
2023-04-01T11:23:10.010Z,7.77
2023-04-01T11:26:12.084Z,7.66
2023-04-01T11:28:41.451Z,7.76
2023-04-01T11:31:18.793Z,7.68
2023-04-01T11:33:50.501Z,7.90
2023-04-01T11:36:38.858Z,7.90
2023-04-01T11:39:05.228Z,7.62
2023-04-01T11:41:31.513Z,7.96
2023-04-01T11:44:15.996Z,7.86
2023-04-01T11:47:03.408Z,7.71
2023-04-01T11:49:48.641Z,7.60
2023-04-01T11:52:23.451Z,7.51
2023-04-01T11:54:57.140Z,7.50
2023-04-01T11:57:35.656Z,7.74
2023-04-01T12:00:02.127Z,7.70
2023-04-01T12:02:50.158Z,7.80
2023-04-01T12:05:25.438Z,7.43
2023-04-01T12:07:56.574Z,7.46
2023-04-01T12:10:29.753Z,7.67
2023-04-01T12:13:05.288Z,7.56
2023-04-01T12:15:50.692Z,7.73
2023-04-01T12:18:17.258Z,7.52
2023-04-01T12:20:51.151Z,7.59
2023-04-01T12:23:25.796Z,7.58
2023-04-01T12:26:04.912Z,7.52
2023-04-01T12:28:50.370Z,7.61
2023-04-01T12:31:25.073Z,7.71
2023-04-01T12:34:07.087Z,7.72
2023-04-01T12:36:40.272Z,7.67
2023-04-01T12:39:21.200Z,7.74
2023-04-01T12:41:56.715Z,7.45
2023-04-01T12:44:36.512Z,7.12
2023-04-01T12:47:21.616Z,7.23
2023-04-01T12:49:47.880Z,6.98
2023-04-01T12:52:32.970Z,7.16
2023-04-01T12:55:00.773Z,7.32
2023-04-01T12:57:27.590Z,7.49
2023-04-01T13:00:21.599Z,7.64
2023-04-01T13:02:50.969Z,7.35
2023-04-01T13:05:36.501Z,7.39
2023-04-01T13:08:08.114Z,7.15
2023-04-01T13:10:49.736Z,7.08
2023-04-01T13:13:24.789Z,7.00
2023-04-01T13:16:09.903Z,6.99
2023-04-01T13:18:55.218Z,7.10
2023-04-01T13:21:31.139Z,7.09
2023-04-01T13:24:11.122Z,7.27
2023-04-01T13:26:59.232Z,7.29
2023-04-01T13:29:41.549Z,7.09
2023-04-01T13:32:18.010Z,7.11
2023-04-01T13:34:50.669Z,6.86
2023-04-01T13:37:16.960Z,7.09
2023-04-01T13:39:43.504Z,7.26
2023-04-01T13:42:15.980Z,7.20
2023-04-01T13:44:49.048Z,7.11
2023-04-01T13:47:25.118Z,7.24
2023-04-01T13:49:54.589Z,6.90
2023-04-01T13:52:27.585Z,6.83
2023-04-01T13:54:58.000Z,7.06
2023-04-01T13:58:06.781Z,6.91
2023-04-01T14:00:48.438Z,7.17
2023-04-01T14:03:20.867Z,6.84
2023-04-01T14:06:07.336Z,6.84
2023-04-01T14:08:36.798Z,6.82
2023-04-01T14:11:17.604Z,6.75
2023-04-01T14:14:10.603Z,6.61
2023-04-01T14:16:36.911Z,6.64
2023-04-01T14:19:27.653Z,6.63
2023-04-01T14:22:05.065Z,6.47
2023-04-01T14:24:47.072Z,6.75
2023-04-01T14:27:20.506Z,6.60
2023-04-01T14:29:58.905Z,6.46
2023-04-01T14:32:35.376Z,6.54
2023-04-01T14:35:19.306Z,6.67
2023-04-01T14:38:01.248Z,6.89
2023-04-01T14:40:52.814Z,6.62
2023-04-01T14:43:22.638Z,6.56
2023-04-01T14:46:00.675Z,6.89
2023-04-01T14:48:33.079Z,6.92
2023-04-01T14:51:05.397Z,6.50
2023-04-01T14:53:39.596Z,6.30
2023-04-01T14:56:06.185Z,6.44
2023-04-01T14:58:42.110Z,6.59
2023-04-01T15:01:27.367Z,6.44
2023-04-01T15:03:56.706Z,6.56
2023-04-01T15:06:42.072Z,6.28
2023-04-01T15:09:22.152Z,5.98
2023-04-01T15:11:57.652Z,6.08
2023-04-01T15:14:30.346Z,5.95
2023-04-01T15:17:02.295Z,6.34
2023-04-01T15:20:01.223Z,6.12
2023-04-01T15:22:42.620Z,6.02
2023-04-01T15:25:24.186Z,5.88
2023-04-01T15:28:02.276Z,5.92
2023-04-01T15:30:41.030Z,6.27
2023-04-01T15:33:19.759Z,6.11
2023-04-01T15:36:05.986Z,6.26
2023-04-01T15:38:37.354Z,6.34
2023-04-01T15:41:10.967Z,6.25
2023-04-01T15:43:42.225Z,6.14
2023-04-01T15:46:18.100Z,6.03
2023-04-01T15:49:00.542Z,6.22
2023-04-01T15:51:26.945Z,6.06
2023-04-01T15:54:16.802Z,5.81
2023-04-01T15:56:49.280Z,5.72
2023-04-01T15:59:22.513Z,6.09
2023-04-01T16:02:00.970Z,6.09
2023-04-01T16:04:47.616Z,6.18
2023-04-01T16:07:26.292Z,5.92
2023-04-01T16:10:01.734Z,5.82
2023-04-01T16:12:52.803Z,5.60
2023-04-01T16:15:57.732Z,5.48
2023-04-01T16:18:33.545Z,5.55
2023-04-01T16:21:15.052Z,5.58
2023-04-01T16:23:59.454Z,5.71
2023-04-01T16:26:29.660Z,5.36
2023-04-01T16:28:59.126Z,5.37
2023-04-01T16:31:33.524Z,5.62
2023-04-01T16:34:11.698Z,5.38
2023-04-01T16:36:43.241Z,5.37
2023-04-01T16:39:18.775Z,5.55
2023-04-01T16:41:50.149Z,5.50
2023-04-01T16:44:21.686Z,5.32
2023-04-01T16:46:52.165Z,5.38
2023-04-01T16:49:25.960Z,5.19
2023-04-01T16:51:52.280Z,5.48
2023-04-01T16:54:18.600Z,5.33
2023-04-01T16:56:48.545Z,5.32
2023-04-01T16:59:18.467Z,5.07
2023-04-01T17:01:55.705Z,4.96
2023-04-01T17:04:42.046Z,5.09
2023-04-01T17:07:27.612Z,5.16
2023-04-01T17:09:58.196Z,5.25
2023-04-01T17:12:24.474Z,5.16
2023-04-01T17:15:13.030Z,5.16
2023-04-01T17:17:58.180Z,4.96
2023-04-01T17:20:32.798Z,5.05
2023-04-01T17:23:25.870Z,5.03
2023-04-01T17:25:58.405Z,5.05
2023-04-01T17:28:45.637Z,4.93
2023-04-01T17:31:31.901Z,4.82
2023-04-01T17:34:17.099Z,4.72
2023-04-01T17:37:16.948Z,4.71
2023-04-01T17:40:13.067Z,4.71
2023-04-01T17:42:58.428Z,4.64
2023-04-01T17:45:47.545Z,4.56
2023-04-01T17:48:37.113Z,4.57
2023-04-01T17:51:03.625Z,4.71
2023-04-01T17:53:52.049Z,4.47
2023-04-01T17:56:25.275Z,4.50
2023-04-01T17:59:03.668Z,4.47
2023-04-01T18:01:41.837Z,4.74
2023-04-01T18:04:23.614Z,4.57
2023-04-01T18:07:08.972Z,4.44
2023-04-01T18:09:49.608Z,4.36
2023-04-01T18:12:24.337Z,4.29
2023-04-01T18:14:51.420Z,4.41
2023-04-01T18:17:43.761Z,4.28
2023-04-01T18:20:35.677Z,4.28
2023-04-01T18:23:13.554Z,4.39
2023-04-01T18:25:53.634Z,4.26
2023-04-01T18:28:30.004Z,4.31
2023-04-01T18:31:11.782Z,4.09
2023-04-01T18:33:38.299Z,4.24
2023-04-01T18:36:17.136Z,4.33
2023-04-01T18:39:04.773Z,4.22
2023-04-01T18:41:43.699Z,4.27
2023-04-01T18:44:19.442Z,4.16
2023-04-01T18:46:59.736Z,4.31
2023-04-01T18:49:49.309Z,4.62
2023-04-01T18:52:28.825Z,4.45
2023-04-01T18:55:06.752Z,4.60
2023-04-01T19:01:08.037Z,4.58
2023-04-01T19:09:54.751Z,4.00
2023-04-01T19:12:39.792Z,4.02
2023-04-01T19:15:25.059Z,3.90
2023-04-01T19:18:03.836Z,3.84
2023-04-01T19:20:43.129Z,3.79
2023-04-01T19:23:22.085Z,3.64
2023-04-01T19:26:12.511Z,3.49
2023-04-01T19:28:54.676Z,3.62
2023-04-01T19:31:35.987Z,3.42
2023-04-01T19:34:13.860Z,3.51
2023-04-01T19:37:03.529Z,3.71
2023-04-01T19:39:45.704Z,3.78
2023-04-01T19:42:17.121Z,3.89
2023-04-01T19:44:54.469Z,3.50
2023-04-01T19:47:49.925Z,3.43
2023-04-01T19:50:36.640Z,3.39
2023-04-01T19:53:25.030Z,3.38
2023-04-01T19:55:58.485Z,3.46
2023-04-01T19:58:54.508Z,3.31
2023-04-01T20:04:40.577Z,3.32
2023-04-01T20:07:16.470Z,3.45
2023-04-01T20:09:56.489Z,3.39
2023-04-01T20:12:38.692Z,3.41
2023-04-01T20:16:12.305Z,3.44
2023-04-01T20:18:42.222Z,3.31
2023-04-01T20:21:35.868Z,3.29
2023-04-01T20:25:00.700Z,3.27
2023-04-01T20:34:17.716Z,3.04
2023-04-01T20:39:48.019Z,2.96
2023-04-01T20:42:35.581Z,3.14
2023-04-01T20:45:19.077Z,3.21
2023-04-01T20:47:58.081Z,3.00
2023-04-01T20:50:24.514Z,3.13
2023-04-01T20:52:57.474Z,2.93
2023-04-01T20:55:31.477Z,3.05
2023-04-01T20:58:14.399Z,3.36
2023-04-01T21:00:46.942Z,3.06
2023-04-01T21:03:19.737Z,2.97
2023-04-01T21:06:00.964Z,3.15
2023-04-01T21:08:33.117Z,3.03
2023-04-01T21:11:09.244Z,2.96
2023-04-01T21:13:59.775Z,3.07
2023-04-01T21:16:33.149Z,3.02
2023-04-01T21:19:02.857Z,2.70
2023-04-01T21:21:29.206Z,2.81
2023-04-01T21:24:06.575Z,2.81
2023-04-01T21:26:32.967Z,2.99
2023-04-01T21:29:25.850Z,3.06
2023-04-01T21:32:07.284Z,3.13
2023-04-01T21:34:53.088Z,2.80
2023-04-01T21:37:28.202Z,2.84
2023-04-01T21:40:13.045Z,2.80
2023-04-01T21:42:57.191Z,2.80
2023-04-01T21:45:39.967Z,2.90
2023-04-01T21:48:16.562Z,2.65
2023-04-01T21:51:00.893Z,2.81
2023-04-01T21:53:46.185Z,2.72
2023-04-01T21:56:27.458Z,2.73
2023-04-01T21:58:53.965Z,2.81
2023-04-01T22:01:29.600Z,2.83
2023-04-01T22:04:14.746Z,2.64
2023-04-01T22:06:55.062Z,2.88
2023-04-01T22:09:40.425Z,2.76
2023-04-01T22:12:27.645Z,2.72
2023-04-01T22:14:57.740Z,2.98
2023-04-01T22:17:34.100Z,2.83
2023-04-01T22:20:05.877Z,2.72
2023-04-01T22:22:39.322Z,2.78
2023-04-01T22:25:15.148Z,3.03
2023-04-01T22:27:59.871Z,2.89
2023-04-01T22:30:40.336Z,2.97
2023-04-01T22:33:12.273Z,2.80
2023-04-01T22:36:08.520Z,2.72
2023-04-01T22:38:56.830Z,2.66
2023-04-01T22:41:23.263Z,2.62
2023-04-01T22:43:50.713Z,2.95
2023-04-01T22:46:45.037Z,2.82
2023-04-01T22:49:17.618Z,2.73
2023-04-01T22:51:46.800Z,2.84
2023-04-01T22:54:23.691Z,2.74
2023-04-01T22:57:16.573Z,2.82
2023-04-01T22:59:49.204Z,2.84
2023-04-01T23:02:17.896Z,2.52
2023-04-01T23:04:46.706Z,2.66
2023-04-01T23:07:27.718Z,2.88
2023-04-01T23:09:56.499Z,2.55
2023-04-01T23:12:23.746Z,2.64
2023-04-01T23:14:52.208Z,2.53
2023-04-01T23:17:27.790Z,2.50
2023-04-01T23:20:13.497Z,2.53
2023-04-01T23:22:47.380Z,2.66
2023-04-01T23:25:16.855Z,2.62
2023-04-01T23:27:52.556Z,2.80
2023-04-01T23:30:37.949Z,2.64
2023-04-01T23:33:19.726Z,2.83
2023-04-01T23:35:49.673Z,2.70
2023-04-01T23:38:16.440Z,2.61
2023-04-01T23:40:43.130Z,2.72
2023-04-01T23:43:29.508Z,2.58
2023-04-01T23:45:57.029Z,2.72
2023-04-01T23:48:27.065Z,2.67
2023-04-01T23:50:53.749Z,2.56
2023-04-01T23:53:22.282Z,2.50
2023-04-01T23:55:48.846Z,2.67
2023-04-01T23:58:56.568Z,2.61
